sensor_id;sensor_type;location;lat;lon;timestamp;P1;durP1;ratioP1;P2;durP2;ratioP2
31224;SDS011;17847;31.524;74.366;2023-02-21T00:05:55;185.02;;;112.68;;
31224;SDS011;17847;31.524;74.366;2023-02-21T00:08:49;176.00;;;110.57;;
31224;SDS011;17847;31.524;74.366;2023-02-21T00:12:02;181.13;;;111.70;;
31224;SDS011;17847;31.524;74.366;2023-02-21T00:14:56;176.00;;;109.28;;
31224;SDS011;17847;31.524;74.366;2023-02-21T00:18:10;188.40;;;115.63;;
31224;SDS011;17847;31.524;74.366;2023-02-21T00:21:03;184.70;;;112.82;;
31224;SDS011;17847;31.524;74.366;2023-02-21T00:24:18;180.60;;;111.03;;
31224;SDS011;17847;31.524;74.366;2023-02-21T00:27:13;176.70;;;111.75;;
31224;SDS011;17847;31.524;74.366;2023-02-21T00:30:26;186.15;;;112.38;;
31224;SDS011;17847;31.524;74.366;2023-02-21T00:33:20;175.93;;;109.57;;
31224;SDS011;17847;31.524;74.366;2023-02-21T00:36:34;169.45;;;106.45;;
31224;SDS011;17847;31.524;74.366;2023-02-21T00:39:27;179.27;;;110.72;;
31224;SDS011;17847;31.524;74.366;2023-02-21T00:42:41;171.15;;;108.28;;
31224;SDS011;17847;31.524;74.366;2023-02-21T00:45:41;184.55;;;114.10;;
31224;SDS011;17847;31.524;74.366;2023-02-21T00:48:50;181.23;;;112.90;;
31224;SDS011;17847;31.524;74.366;2023-02-21T00:51:50;170.70;;;109.13;;
31224;SDS011;17847;31.524;74.366;2023-02-21T00:54:59;195.90;;;121.28;;
31224;SDS011;17847;31.524;74.366;2023-02-21T00:57:58;192.18;;;119.78;;
31224;SDS011;17847;31.524;74.366;2023-02-21T01:01:06;208.55;;;126.55;;
31224;SDS011;17847;31.524;74.366;2023-02-21T01:04:15;222.68;;;129.98;;
31224;SDS011;17847;31.524;74.366;2023-02-21T01:07:29;224.95;;;130.40;;
31224;SDS011;17847;31.524;74.366;2023-02-21T01:10:29;207.35;;;124.93;;
31224;SDS011;17847;31.524;74.366;2023-02-21T01:13:37;236.20;;;129.63;;
31224;SDS011;17847;31.524;74.366;2023-02-21T01:16:37;214.85;;;122.15;;
31224;SDS011;17847;31.524;74.366;2023-02-21T01:19:52;239.85;;;124.68;;
31224;SDS011;17847;31.524;74.366;2023-02-21T01:22:52;229.25;;;124.68;;
31224;SDS011;17847;31.524;74.366;2023-02-21T01:25:59;239.48;;;125.13;;
31224;SDS011;17847;31.524;74.366;2023-02-21T01:28:59;245.00;;;126.82;;
31224;SDS011;17847;31.524;74.366;2023-02-21T01:32:06;246.60;;;129.65;;
31224;SDS011;17847;31.524;74.366;2023-02-21T01:35:06;272.52;;;134.40;;
31224;SDS011;17847;31.524;74.366;2023-02-21T01:38:14;268.67;;;135.07;;
31224;SDS011;17847;31.524;74.366;2023-02-21T01:41:14;271.27;;;134.48;;
31224;SDS011;17847;31.524;74.366;2023-02-21T01:44:35;285.73;;;139.63;;
31224;SDS011;17847;31.524;74.366;2023-02-21T01:47:36;256.92;;;125.65;;
31224;SDS011;17847;31.524;74.366;2023-02-21T01:50:44;222.55;;;114.97;;
31224;SDS011;17847;31.524;74.366;2023-02-21T01:53:44;225.10;;;117.55;;
31224;SDS011;17847;31.524;74.366;2023-02-21T01:56:53;211.23;;;105.78;;
31224;SDS011;17847;31.524;74.366;2023-02-21T01:59:56;184.38;;;98.68;;
31224;SDS011;17847;31.524;74.366;2023-02-21T02:03:05;160.38;;;91.70;;
31224;SDS011;17847;31.524;74.366;2023-02-21T02:06:21;139.85;;;81.40;;
31224;SDS011;17847;31.524;74.366;2023-02-21T02:09:21;133.13;;;74.28;;
31224;SDS011;17847;31.524;74.366;2023-02-21T02:12:38;133.52;;;76.00;;
31224;SDS011;17847;31.524;74.366;2023-02-21T02:15:21;114.40;;;65.28;;
31224;SDS011;17847;31.524;74.366;2023-02-21T02:18:50;106.38;;;63.40;;
31224;SDS011;17847;31.524;74.366;2023-02-21T02:21:37;106.20;;;66.95;;
31224;SDS011;17847;31.524;74.366;2023-02-21T02:37:22;98.32;;;63.65;;
31224;SDS011;17847;31.524;74.366;2023-02-21T02:43:19;101.10;;;67.07;;
31224;SDS011;17847;31.524;74.366;2023-02-21T02:49:08;110.07;;;65.32;;
31224;SDS011;17847;31.524;74.366;2023-02-21T02:52:04;102.32;;;65.47;;
31224;SDS011;17847;31.524;74.366;2023-02-21T02:54:58;110.88;;;64.55;;
31224;SDS011;17847;31.524;74.366;2023-02-21T02:57:44;96.78;;;61.53;;
31224;SDS011;17847;31.524;74.366;2023-02-21T03:00:41;101.25;;;62.83;;
31224;SDS011;17847;31.524;74.366;2023-02-21T03:03:51;97.55;;;59.08;;
31224;SDS011;17847;31.524;74.366;2023-02-21T03:07:16;95.63;;;59.47;;
31224;SDS011;17847;31.524;74.366;2023-02-21T03:10:44;100.20;;;58.85;;
31224;SDS011;17847;31.524;74.366;2023-02-21T03:13:39;94.35;;;58.33;;
31224;SDS011;17847;31.524;74.366;2023-02-21T03:16:36;97.80;;;57.53;;
31224;SDS011;17847;31.524;74.366;2023-02-21T03:19:45;98.53;;;56.63;;
31224;SDS011;17847;31.524;74.366;2023-02-21T03:22:35;94.57;;;56.03;;
31224;SDS011;17847;31.524;74.366;2023-02-21T03:25:19;92.38;;;54.03;;
31224;SDS011;17847;31.524;74.366;2023-02-21T03:28:10;83.97;;;53.05;;
31224;SDS011;17847;31.524;74.366;2023-02-21T03:30:48;84.03;;;51.92;;
31224;SDS011;17847;31.524;74.366;2023-02-21T03:33:48;70.72;;;47.83;;
31224;SDS011;17847;31.524;74.366;2023-02-21T03:36:30;80.50;;;48.63;;
31224;SDS011;17847;31.524;74.366;2023-02-21T03:39:21;66.60;;;47.25;;
31224;SDS011;17847;31.524;74.366;2023-02-21T03:41:56;71.05;;;46.75;;
31224;SDS011;17847;31.524;74.366;2023-02-21T03:44:52;74.15;;;45.20;;
31224;SDS011;17847;31.524;74.366;2023-02-21T03:47:27;64.35;;;41.70;;
31224;SDS011;17847;31.524;74.366;2023-02-21T03:50:24;69.30;;;41.50;;
31224;SDS011;17847;31.524;74.366;2023-02-21T03:53:06;60.80;;;39.88;;
31224;SDS011;17847;31.524;74.366;2023-02-21T03:55:56;58.20;;;39.63;;
31224;SDS011;17847;31.524;74.366;2023-02-21T03:58:55;53.30;;;37.35;;
31224;SDS011;17847;31.524;74.366;2023-02-21T04:01:44;58.67;;;38.97;;
31224;SDS011;17847;31.524;74.366;2023-02-21T04:04:35;61.90;;;38.45;;
31224;SDS011;17847;31.524;74.366;2023-02-21T04:07:21;56.70;;;35.40;;
31224;SDS011;17847;31.524;74.366;2023-02-21T04:10:11;53.97;;;36.65;;
31224;SDS011;17847;31.524;74.366;2023-02-21T04:12:55;52.95;;;35.42;;
31224;SDS011;17847;31.524;74.366;2023-02-21T04:15:48;51.40;;;33.80;;
31224;SDS011;17847;31.524;74.366;2023-02-21T04:18:33;58.75;;;34.10;;
31224;SDS011;17847;31.524;74.366;2023-02-21T04:21:22;67.40;;;37.33;;
31224;SDS011;17847;31.524;74.366;2023-02-21T04:24:07;56.03;;;35.25;;
31224;SDS011;17847;31.524;74.366;2023-02-21T04:26:57;54.50;;;34.47;;
31224;SDS011;17847;31.524;74.366;2023-02-21T04:29:44;52.38;;;33.15;;
31224;SDS011;17847;31.524;74.366;2023-02-21T04:32:33;51.28;;;34.05;;
31224;SDS011;17847;31.524;74.366;2023-02-21T04:35:16;51.97;;;34.17;;
31224;SDS011;17847;31.524;74.366;2023-02-21T04:38:20;51.63;;;34.22;;
31224;SDS011;17847;31.524;74.366;2023-02-21T04:41:03;54.25;;;34.40;;
31224;SDS011;17847;31.524;74.366;2023-02-21T04:43:54;52.03;;;33.25;;
31224;SDS011;17847;31.524;74.366;2023-02-21T04:46:37;50.25;;;32.30;;
31224;SDS011;17847;31.524;74.366;2023-02-21T04:49:32;57.47;;;35.92;;
31224;SDS011;17847;31.524;74.366;2023-02-21T04:52:14;64.43;;;34.72;;
31224;SDS011;17847;31.524;74.366;2023-02-21T04:55:03;48.15;;;33.38;;
31224;SDS011;17847;31.524;74.366;2023-02-21T04:57:38;70.32;;;35.55;;
31224;SDS011;17847;31.524;74.366;2023-02-21T05:00:34;53.20;;;33.85;;
31224;SDS011;17847;31.524;74.366;2023-02-21T05:03:22;50.03;;;32.05;;
31224;SDS011;17847;31.524;74.366;2023-02-21T05:06:17;64.05;;;33.30;;
31224;SDS011;17847;31.524;74.366;2023-02-21T05:09:03;60.25;;;32.65;;
31224;SDS011;17847;31.524;74.366;2023-02-21T05:11:52;57.90;;;33.22;;
31224;SDS011;17847;31.524;74.366;2023-02-21T05:14:33;58.83;;;32.85;;
31224;SDS011;17847;31.524;74.366;2023-02-21T05:17:23;57.58;;;32.17;;
31224;SDS011;17847;31.524;74.366;2023-02-21T05:20:04;53.28;;;32.58;;
31224;SDS011;17847;31.524;74.366;2023-02-21T05:22:58;69.32;;;34.08;;
31224;SDS011;17847;31.524;74.366;2023-02-21T05:25:46;59.03;;;33.42;;
31224;SDS011;17847;31.524;74.366;2023-02-21T05:28:35;57.10;;;33.28;;
31224;SDS011;17847;31.524;74.366;2023-02-21T05:31:18;59.72;;;34.10;;
31224;SDS011;17847;31.524;74.366;2023-02-21T05:34:08;56.80;;;33.97;;
31224;SDS011;17847;31.524;74.366;2023-02-21T05:36:53;54.28;;;34.20;;
31224;SDS011;17847;31.524;74.366;2023-02-21T05:39:43;49.20;;;33.28;;
31224;SDS011;17847;31.524;74.366;2023-02-21T05:42:25;60.50;;;34.03;;
31224;SDS011;17847;31.524;74.366;2023-02-21T05:45:14;62.33;;;32.80;;
31224;SDS011;17847;31.524;74.366;2023-02-21T05:47:55;54.95;;;31.30;;
31224;SDS011;17847;31.524;74.366;2023-02-21T05:50:47;62.42;;;31.55;;
31224;SDS011;17847;31.524;74.366;2023-02-21T05:53:28;52.13;;;32.30;;
31224;SDS011;17847;31.524;74.366;2023-02-21T05:56:17;49.80;;;30.63;;
31224;SDS011;17847;31.524;74.366;2023-02-21T05:58:54;53.38;;;32.70;;
31224;SDS011;17847;31.524;74.366;2023-02-21T06:01:50;52.08;;;31.05;;
31224;SDS011;17847;31.524;74.366;2023-02-21T06:04:32;49.47;;;30.58;;
31224;SDS011;17847;31.524;74.366;2023-02-21T06:07:21;53.50;;;31.33;;
31224;SDS011;17847;31.524;74.366;2023-02-21T06:10:02;49.15;;;29.67;;
31224;SDS011;17847;31.524;74.366;2023-02-21T06:12:52;48.70;;;29.65;;
31224;SDS011;17847;31.524;74.366;2023-02-21T06:15:33;50.50;;;30.48;;
31224;SDS011;17847;31.524;74.366;2023-02-21T06:18:22;56.05;;;31.52;;
31224;SDS011;17847;31.524;74.366;2023-02-21T06:21:03;51.75;;;31.20;;
31224;SDS011;17847;31.524;74.366;2023-02-21T06:23:53;52.25;;;31.45;;
31224;SDS011;17847;31.524;74.366;2023-02-21T06:26:35;57.45;;;29.05;;
31224;SDS011;17847;31.524;74.366;2023-02-21T06:29:25;52.65;;;30.30;;
31224;SDS011;17847;31.524;74.366;2023-02-21T06:32:06;50.17;;;30.40;;
31224;SDS011;17847;31.524;74.366;2023-02-21T06:37:31;52.15;;;29.95;;
31224;SDS011;17847;31.524;74.366;2023-02-21T06:40:27;52.50;;;31.48;;
31224;SDS011;17847;31.524;74.366;2023-02-21T06:43:09;50.92;;;32.03;;
31224;SDS011;17847;31.524;74.366;2023-02-21T06:45:59;57.85;;;32.72;;
31224;SDS011;17847;31.524;74.366;2023-02-21T06:48:40;60.40;;;32.10;;
31224;SDS011;17847;31.524;74.366;2023-02-21T06:51:38;60.60;;;33.08;;
31224;SDS011;17847;31.524;74.366;2023-02-21T06:54:21;56.08;;;33.03;;
31224;SDS011;17847;31.524;74.366;2023-02-21T06:57:10;59.10;;;33.17;;
31224;SDS011;17847;31.524;74.366;2023-02-21T06:59:52;52.72;;;32.85;;
31224;SDS011;17847;31.524;74.366;2023-02-21T07:02:42;61.35;;;32.60;;
31224;SDS011;17847;31.524;74.366;2023-02-21T07:05:38;51.17;;;31.27;;
31224;SDS011;17847;31.524;74.366;2023-02-21T07:08:33;53.47;;;33.63;;
31224;SDS011;17847;31.524;74.366;2023-02-21T07:11:15;44.42;;;31.38;;
31224;SDS011;17847;31.524;74.366;2023-02-21T07:14:06;55.58;;;32.38;;
31224;SDS011;17847;31.524;74.366;2023-02-21T07:16:48;48.67;;;31.85;;
31224;SDS011;17847;31.524;74.366;2023-02-21T07:19:38;52.08;;;31.20;;
31224;SDS011;17847;31.524;74.366;2023-02-21T07:22:19;48.65;;;33.35;;
31224;SDS011;17847;31.524;74.366;2023-02-21T07:25:14;54.70;;;34.38;;
31224;SDS011;17847;31.524;74.366;2023-02-21T07:27:57;52.00;;;35.97;;
31224;SDS011;17847;31.524;74.366;2023-02-21T07:30:47;58.00;;;38.60;;
31224;SDS011;17847;31.524;74.366;2023-02-21T07:33:28;59.17;;;37.80;;
31224;SDS011;17847;31.524;74.366;2023-02-21T07:36:18;55.42;;;35.17;;
31224;SDS011;17847;31.524;74.366;2023-02-21T07:38:59;58.75;;;35.85;;
31224;SDS011;17847;31.524;74.366;2023-02-21T07:41:48;63.13;;;37.47;;
31224;SDS011;17847;31.524;74.366;2023-02-21T07:44:29;60.88;;;34.90;;
31224;SDS011;17847;31.524;74.366;2023-02-21T07:47:19;66.35;;;39.08;;
31224;SDS011;17847;31.524;74.366;2023-02-21T07:50:00;54.30;;;37.95;;
31224;SDS011;17847;31.524;74.366;2023-02-21T07:52:50;65.85;;;40.38;;
31224;SDS011;17847;31.524;74.366;2023-02-21T07:55:33;62.17;;;38.42;;
31224;SDS011;17847;31.524;74.366;2023-02-21T07:58:23;63.40;;;38.25;;
31224;SDS011;17847;31.524;74.366;2023-02-21T08:01:05;71.78;;;39.95;;
31224;SDS011;17847;31.524;74.366;2023-02-21T08:03:55;60.40;;;38.40;;
31224;SDS011;17847;31.524;74.366;2023-02-21T08:06:50;67.22;;;43.08;;
31224;SDS011;17847;31.524;74.366;2023-02-21T08:09:33;62.33;;;39.80;;
31224;SDS011;17847;31.524;74.366;2023-02-21T08:12:21;65.25;;;42.53;;
31224;SDS011;17847;31.524;74.366;2023-02-21T08:15:04;70.68;;;43.40;;
31224;SDS011;17847;31.524;74.366;2023-02-21T08:17:53;65.85;;;41.10;;
31224;SDS011;17847;31.524;74.366;2023-02-21T08:20:35;60.83;;;42.15;;
31224;SDS011;17847;31.524;74.366;2023-02-21T08:23:24;61.05;;;39.58;;
31224;SDS011;17847;31.524;74.366;2023-02-21T08:26:06;66.70;;;42.00;;
31224;SDS011;17847;31.524;74.366;2023-02-21T08:31:38;57.47;;;38.42;;
31224;SDS011;17847;31.524;74.366;2023-02-21T08:34:28;63.25;;;39.42;;
31224;SDS011;17847;31.524;74.366;2023-02-21T08:37:11;60.55;;;38.60;;
31224;SDS011;17847;31.524;74.366;2023-02-21T08:40:00;69.13;;;39.77;;
31224;SDS011;17847;31.524;74.366;2023-02-21T08:42:42;61.08;;;36.85;;
31224;SDS011;17847;31.524;74.366;2023-02-21T08:45:35;71.82;;;37.60;;
31224;SDS011;17847;31.524;74.366;2023-02-21T08:48:17;64.68;;;38.25;;
31224;SDS011;17847;31.524;74.366;2023-02-21T08:51:06;77.53;;;38.05;;
31224;SDS011;17847;31.524;74.366;2023-02-21T08:53:48;50.20;;;34.67;;
31224;SDS011;17847;31.524;74.366;2023-02-21T08:56:37;52.63;;;35.42;;
31224;SDS011;17847;31.524;74.366;2023-02-21T08:59:19;55.22;;;36.28;;
31224;SDS011;17847;31.524;74.366;2023-02-21T09:02:14;66.97;;;37.83;;
31224;SDS011;17847;31.524;74.366;2023-02-21T09:05:12;72.82;;;38.40;;
31224;SDS011;17847;31.524;74.366;2023-02-21T09:08:14;78.93;;;37.83;;
31224;SDS011;17847;31.524;74.366;2023-02-21T09:10:56;57.55;;;36.38;;
31224;SDS011;17847;31.524;74.366;2023-02-21T09:13:45;72.50;;;36.60;;
31224;SDS011;17847;31.524;74.366;2023-02-21T09:16:27;63.60;;;39.60;;
31224;SDS011;17847;31.524;74.366;2023-02-21T09:19:16;63.13;;;36.63;;
31224;SDS011;17847;31.524;74.366;2023-02-21T09:21:58;59.55;;;37.60;;
31224;SDS011;17847;31.524;74.366;2023-02-21T09:24:47;73.90;;;38.85;;
31224;SDS011;17847;31.524;74.366;2023-02-21T09:27:29;61.28;;;35.53;;
31224;SDS011;17847;31.524;74.366;2023-02-21T09:30:19;58.42;;;34.13;;
31224;SDS011;17847;31.524;74.366;2023-02-21T09:33:04;49.55;;;33.85;;
31224;SDS011;17847;31.524;74.366;2023-02-21T09:35:53;49.00;;;31.70;;
31224;SDS011;17847;31.524;74.366;2023-02-21T09:38:35;46.00;;;30.13;;
31224;SDS011;17847;31.524;74.366;2023-02-21T09:44:09;43.80;;;28.20;;
31224;SDS011;17847;31.524;74.366;2023-02-21T09:47:06;41.80;;;29.38;;
31224;SDS011;17847;31.524;74.366;2023-02-21T09:49:50;40.38;;;28.02;;
31224;SDS011;17847;31.524;74.366;2023-02-21T09:52:55;45.53;;;29.60;;
31224;SDS011;17847;31.524;74.366;2023-02-21T09:55:38;46.20;;;27.20;;
31224;SDS011;17847;31.524;74.366;2023-02-21T09:58:35;49.00;;;27.58;;
31224;SDS011;17847;31.524;74.366;2023-02-21T10:01:22;55.50;;;27.95;;
31224;SDS011;17847;31.524;74.366;2023-02-21T10:07:55;46.20;;;27.00;;
31224;SDS011;17847;31.524;74.366;2023-02-21T10:10:53;44.88;;;26.63;;
31224;SDS011;17847;31.524;74.366;2023-02-21T10:13:47;48.13;;;26.13;;
31224;SDS011;17847;31.524;74.366;2023-02-21T10:16:58;42.83;;;27.77;;
31224;SDS011;17847;31.524;74.366;2023-02-21T10:20:01;43.85;;;28.38;;
31224;SDS011;17847;31.524;74.366;2023-02-21T10:22:56;48.90;;;27.80;;
31224;SDS011;17847;31.524;74.366;2023-02-21T10:25:48;47.80;;;28.88;;
31224;SDS011;17847;31.524;74.366;2023-02-21T10:28:36;44.25;;;27.40;;
31224;SDS011;17847;31.524;74.366;2023-02-21T10:34:15;48.10;;;28.35;;
31224;SDS011;17847;31.524;74.366;2023-02-21T10:43:43;48.40;;;29.27;;
31224;SDS011;17847;31.524;74.366;2023-02-21T10:46:33;53.55;;;28.25;;
31224;SDS011;17847;31.524;74.366;2023-02-21T10:50:16;41.35;;;29.00;;
31224;SDS011;17847;31.524;74.366;2023-02-21T10:52:49;50.42;;;29.08;;
31224;SDS011;17847;31.524;74.366;2023-02-21T10:55:38;52.90;;;30.58;;
31224;SDS011;17847;31.524;74.366;2023-02-21T10:58:22;45.40;;;29.17;;
31224;SDS011;17847;31.524;74.366;2023-02-21T11:01:15;52.80;;;30.00;;
31224;SDS011;17847;31.524;74.366;2023-02-21T11:04:22;41.15;;;29.02;;
31224;SDS011;17847;31.524;74.366;2023-02-21T11:07:24;49.77;;;30.43;;
31224;SDS011;17847;31.524;74.366;2023-02-21T11:10:29;48.63;;;28.73;;
31224;SDS011;17847;31.524;74.366;2023-02-21T11:13:20;56.22;;;29.52;;
31224;SDS011;17847;31.524;74.366;2023-02-21T11:16:09;48.50;;;28.00;;
31224;SDS011;17847;31.524;74.366;2023-02-21T11:19:05;42.97;;;28.15;;
31224;SDS011;17847;31.524;74.366;2023-02-21T11:21:53;50.20;;;27.95;;
31224;SDS011;17847;31.524;74.366;2023-02-21T11:27:40;46.67;;;25.58;;
31224;SDS011;17847;31.524;74.366;2023-02-21T11:30:30;45.30;;;28.00;;
31224;SDS011;17847;31.524;74.366;2023-02-21T11:33:19;56.45;;;27.85;;
31224;SDS011;17847;31.524;74.366;2023-02-21T11:36:12;47.35;;;27.85;;
31224;SDS011;17847;31.524;74.366;2023-02-21T11:39:03;47.58;;;27.95;;
31224;SDS011;17847;31.524;74.366;2023-02-21T11:41:57;45.72;;;26.83;;
31224;SDS011;17847;31.524;74.366;2023-02-21T11:44:44;49.92;;;24.90;;
31224;SDS011;17847;31.524;74.366;2023-02-21T11:50:35;48.22;;;23.98;;
31224;SDS011;17847;31.524;74.366;2023-02-21T11:53:39;38.83;;;20.17;;
31224;SDS011;17847;31.524;74.366;2023-02-21T12:12:44;35.63;;;19.08;;
31224;SDS011;17847;31.524;74.366;2023-02-21T12:18:38;40.05;;;19.48;;
31224;SDS011;17847;31.524;74.366;2023-02-21T12:27:54;32.63;;;19.10;;
31224;SDS011;17847;31.524;74.366;2023-02-21T12:41:19;36.83;;;16.50;;
31224;SDS011;17847;31.524;74.366;2023-02-21T12:44:11;34.35;;;16.20;;
31224;SDS011;17847;31.524;74.366;2023-02-21T12:47:05;32.50;;;16.65;;
31224;SDS011;17847;31.524;74.366;2023-02-21T12:50:10;30.20;;;16.90;;
31224;SDS011;17847;31.524;74.366;2023-02-21T12:53:02;35.28;;;17.20;;
31224;SDS011;17847;31.524;74.366;2023-02-21T12:56:11;30.15;;;16.52;;
31224;SDS011;17847;31.524;74.366;2023-02-21T12:59:25;33.42;;;14.75;;
31224;SDS011;17847;31.524;74.366;2023-02-21T13:02:22;24.85;;;14.43;;
31224;SDS011;17847;31.524;74.366;2023-02-21T13:05:43;32.40;;;14.82;;
31224;SDS011;17847;31.524;74.366;2023-02-21T13:08:31;34.40;;;15.52;;
31224;SDS011;17847;31.524;74.366;2023-02-21T13:11:55;37.28;;;14.63;;
31224;SDS011;17847;31.524;74.366;2023-02-21T13:14:40;33.75;;;14.48;;
31224;SDS011;17847;31.524;74.366;2023-02-21T13:17:59;28.48;;;14.88;;
31224;SDS011;17847;31.524;74.366;2023-02-21T13:20:47;36.63;;;15.60;;
31224;SDS011;17847;31.524;74.366;2023-02-21T13:24:13;32.85;;;16.48;;
31224;SDS011;17847;31.524;74.366;2023-02-21T13:30:40;32.50;;;16.40;;
31224;SDS011;17847;31.524;74.366;2023-02-21T13:33:54;37.17;;;18.15;;
31224;SDS011;17847;31.524;74.366;2023-02-21T13:36:41;31.27;;;17.25;;
31224;SDS011;17847;31.524;74.366;2023-02-21T13:39:33;31.38;;;18.13;;
31224;SDS011;17847;31.524;74.366;2023-02-21T13:45:15;34.15;;;18.25;;
31224;SDS011;17847;31.524;74.366;2023-02-21T13:50:57;45.15;;;19.17;;
31224;SDS011;17847;31.524;74.366;2023-02-21T13:56:57;39.42;;;18.65;;
31224;SDS011;17847;31.524;74.366;2023-02-21T13:59:38;33.25;;;18.50;;
31224;SDS011;17847;31.524;74.366;2023-02-21T14:02:28;38.00;;;19.65;;
31224;SDS011;17847;31.524;74.366;2023-02-21T14:05:10;43.33;;;19.42;;
31224;SDS011;17847;31.524;74.366;2023-02-21T14:08:01;41.40;;;21.13;;
31224;SDS011;17847;31.524;74.366;2023-02-21T14:16:47;39.67;;;20.50;;
31224;SDS011;17847;31.524;74.366;2023-02-21T14:22:33;45.53;;;20.20;;
31224;SDS011;17847;31.524;74.366;2023-02-21T14:25:23;47.33;;;20.08;;
31224;SDS011;17847;31.524;74.366;2023-02-21T14:31:52;52.28;;;21.63;;
31224;SDS011;17847;31.524;74.366;2023-02-21T14:37:38;48.97;;;21.83;;
31224;SDS011;17847;31.524;74.366;2023-02-21T14:59:35;50.70;;;23.15;;
31224;SDS011;17847;31.524;74.366;2023-02-21T15:02:35;52.67;;;24.17;;
31224;SDS011;17847;31.524;74.366;2023-02-21T15:09:10;70.93;;;25.88;;
31224;SDS011;17847;31.524;74.366;2023-02-21T15:11:53;58.15;;;26.20;;
31224;SDS011;17847;31.524;74.366;2023-02-21T15:14:47;48.88;;;24.52;;
31224;SDS011;17847;31.524;74.366;2023-02-21T15:17:33;58.30;;;25.27;;
31224;SDS011;17847;31.524;74.366;2023-02-21T15:20:22;59.67;;;23.60;;
31224;SDS011;17847;31.524;74.366;2023-02-21T15:26:16;56.58;;;27.52;;
31224;SDS011;17847;31.524;74.366;2023-02-21T15:29:05;54.65;;;26.00;;
31224;SDS011;17847;31.524;74.366;2023-02-21T15:31:54;43.25;;;23.23;;
31224;SDS011;17847;31.524;74.366;2023-02-21T15:37:28;47.17;;;27.08;;
31224;SDS011;17847;31.524;74.366;2023-02-21T15:40:11;48.67;;;28.38;;
31224;SDS011;17847;31.524;74.366;2023-02-21T15:43:18;55.83;;;29.00;;
31224;SDS011;17847;31.524;74.366;2023-02-21T15:46:11;52.45;;;28.35;;
31224;SDS011;17847;31.524;74.366;2023-02-21T15:49:05;49.67;;;29.75;;
31224;SDS011;17847;31.524;74.366;2023-02-21T15:51:47;50.60;;;27.55;;
31224;SDS011;17847;31.524;74.366;2023-02-21T15:54:37;54.15;;;28.30;;
31224;SDS011;17847;31.524;74.366;2023-02-21T15:57:18;59.53;;;29.55;;
31224;SDS011;17847;31.524;74.366;2023-02-21T16:06:30;54.47;;;27.70;;
31224;SDS011;17847;31.524;74.366;2023-02-21T16:09:22;54.33;;;28.67;;
31224;SDS011;17847;31.524;74.366;2023-02-21T16:15:07;46.60;;;25.48;;
31224;SDS011;17847;31.524;74.366;2023-02-21T16:18:10;56.70;;;27.00;;
31224;SDS011;17847;31.524;74.366;2023-02-21T16:20:57;60.13;;;27.95;;
31224;SDS011;17847;31.524;74.366;2023-02-21T16:23:56;71.25;;;32.03;;
31224;SDS011;17847;31.524;74.366;2023-02-21T16:27:10;70.30;;;33.85;;
31224;SDS011;17847;31.524;74.366;2023-02-21T16:30:02;69.45;;;33.63;;
31224;SDS011;17847;31.524;74.366;2023-02-21T16:32:40;69.15;;;35.88;;
31224;SDS011;17847;31.524;74.366;2023-02-21T16:35:38;65.38;;;37.92;;
31224;SDS011;17847;31.524;74.366;2023-02-21T16:38:16;67.38;;;36.03;;
31224;SDS011;17847;31.524;74.366;2023-02-21T16:41:13;67.15;;;34.53;;
31224;SDS011;17847;31.524;74.366;2023-02-21T16:43:56;57.85;;;32.88;;
31224;SDS011;17847;31.524;74.366;2023-02-21T16:46:46;61.92;;;34.20;;
31224;SDS011;17847;31.524;74.366;2023-02-21T16:49:30;70.60;;;37.92;;
31224;SDS011;17847;31.524;74.366;2023-02-21T16:52:20;75.88;;;38.15;;
31224;SDS011;17847;31.524;74.366;2023-02-21T16:55:01;66.03;;;39.75;;
31224;SDS011;17847;31.524;74.366;2023-02-21T16:57:52;88.20;;;39.25;;
31224;SDS011;17847;31.524;74.366;2023-02-21T17:00:37;63.25;;;39.00;;
31224;SDS011;17847;31.524;74.366;2023-02-21T17:03:27;79.35;;;39.75;;
31224;SDS011;17847;31.524;74.366;2023-02-21T17:06:13;79.97;;;41.20;;
31224;SDS011;17847;31.524;74.366;2023-02-21T17:09:06;78.53;;;43.03;;
31224;SDS011;17847;31.524;74.366;2023-02-21T17:11:48;80.15;;;43.08;;
31224;SDS011;17847;31.524;74.366;2023-02-21T17:14:38;76.10;;;46.25;;
31224;SDS011;17847;31.524;74.366;2023-02-21T17:17:15;74.55;;;43.25;;
31224;SDS011;17847;31.524;74.366;2023-02-21T17:20:13;79.57;;;44.28;;
31224;SDS011;17847;31.524;74.366;2023-02-21T17:22:57;73.37;;;42.83;;
31224;SDS011;17847;31.524;74.366;2023-02-21T17:25:47;91.93;;;45.63;;
31224;SDS011;17847;31.524;74.366;2023-02-21T17:28:29;83.35;;;42.65;;
31224;SDS011;17847;31.524;74.366;2023-02-21T17:31:19;81.70;;;45.08;;
31224;SDS011;17847;31.524;74.366;2023-02-21T17:34:14;76.22;;;43.00;;
31224;SDS011;17847;31.524;74.366;2023-02-21T17:37:10;72.05;;;43.40;;
31224;SDS011;17847;31.524;74.366;2023-02-21T17:39:53;76.35;;;43.90;;
31224;SDS011;17847;31.524;74.366;2023-02-21T17:42:44;74.13;;;42.67;;
31224;SDS011;17847;31.524;74.366;2023-02-21T17:45:26;80.72;;;43.13;;
31224;SDS011;17847;31.524;74.366;2023-02-21T17:48:16;77.67;;;45.17;;
31224;SDS011;17847;31.524;74.366;2023-02-21T17:50:58;74.25;;;44.30;;
31224;SDS011;17847;31.524;74.366;2023-02-21T17:53:49;73.90;;;44.40;;
31224;SDS011;17847;31.524;74.366;2023-02-21T17:56:31;84.72;;;44.15;;
31224;SDS011;17847;31.524;74.366;2023-02-21T17:59:21;81.63;;;45.27;;
31224;SDS011;17847;31.524;74.366;2023-02-21T18:01:56;81.10;;;43.25;;
31224;SDS011;17847;31.524;74.366;2023-02-21T18:04:52;77.07;;;42.65;;
31224;SDS011;17847;31.524;74.366;2023-02-21T18:07:34;80.10;;;41.65;;
31224;SDS011;17847;31.524;74.366;2023-02-21T18:10:24;87.90;;;48.45;;
31224;SDS011;17847;31.524;74.366;2023-02-21T18:13:07;80.13;;;45.15;;
31224;SDS011;17847;31.524;74.366;2023-02-21T18:15:56;94.22;;;51.10;;
31224;SDS011;17847;31.524;74.366;2023-02-21T18:18:34;93.18;;;51.45;;
31224;SDS011;17847;31.524;74.366;2023-02-21T18:21:30;110.78;;;59.70;;
31224;SDS011;17847;31.524;74.366;2023-02-21T18:24:14;124.82;;;61.17;;
31224;SDS011;17847;31.524;74.366;2023-02-21T18:27:07;102.85;;;58.70;;
31224;SDS011;17847;31.524;74.366;2023-02-21T18:29:51;86.45;;;49.88;;
31224;SDS011;17847;31.524;74.366;2023-02-21T18:32:43;108.28;;;60.13;;
31224;SDS011;17847;31.524;74.366;2023-02-21T18:35:26;119.05;;;63.85;;
31224;SDS011;17847;31.524;74.366;2023-02-21T18:38:16;117.20;;;66.93;;
31224;SDS011;17847;31.524;74.366;2023-02-21T18:40:59;112.20;;;63.13;;
31224;SDS011;17847;31.524;74.366;2023-02-21T18:43:49;118.47;;;64.55;;
31224;SDS011;17847;31.524;74.366;2023-02-21T18:46:31;115.05;;;63.75;;
31224;SDS011;17847;31.524;74.366;2023-02-21T18:49:21;123.45;;;67.22;;
31224;SDS011;17847;31.524;74.366;2023-02-21T18:52:11;109.75;;;62.83;;
31224;SDS011;17847;31.524;74.366;2023-02-21T18:55:01;123.80;;;63.28;;
31224;SDS011;17847;31.524;74.366;2023-02-21T18:57:42;107.97;;;60.75;;
31224;SDS011;17847;31.524;74.366;2023-02-21T19:00:32;120.40;;;60.33;;